createdAt,value
2018-03-18T00:00:19.425Z,13.30
2018-03-18T00:02:46.370Z,13.43
2018-03-18T00:05:13.286Z,12.68
2018-03-18T00:07:40.203Z,12.27
2018-03-18T00:10:07.088Z,12.40
2018-03-18T00:12:34.717Z,14.00
2018-03-18T00:15:01.613Z,13.50
2018-03-18T00:17:28.490Z,13.38
2018-03-18T00:19:55.402Z,13.23
2018-03-18T00:22:22.997Z,14.45
2018-03-18T00:24:56.783Z,14.55
2018-03-18T00:27:23.621Z,13.20
2018-03-18T00:29:50.483Z,13.70
2018-03-18T00:32:17.513Z,12.57
2018-03-18T00:34:44.338Z,13.18
2018-03-18T00:37:11.205Z,11.02
2018-03-18T00:39:38.038Z,11.38
2018-03-18T00:42:04.954Z,11.15
2018-03-18T00:44:31.790Z,11.48
2018-03-18T00:46:59.366Z,11.02
2018-03-18T00:49:26.214Z,12.60
2018-03-18T00:51:59.863Z,13.77
2018-03-18T00:54:26.726Z,12.52
2018-03-18T00:56:53.563Z,13.27
2018-03-18T00:59:20.437Z,15.00
2018-03-18T01:01:47.358Z,13.62
2018-03-18T01:04:14.211Z,15.32
2018-03-18T01:06:41.779Z,14.68
2018-03-18T01:09:09.378Z,15.07
2018-03-18T01:11:36.319Z,14.13
2018-03-18T01:14:03.239Z,12.57
2018-03-18T01:16:30.106Z,15.00
2018-03-18T01:18:57.027Z,14.32
2018-03-18T01:21:23.939Z,13.85
2018-03-18T01:23:51.534Z,14.25
2018-03-18T01:26:18.451Z,13.32
2018-03-18T01:28:46.034Z,13.95
2018-03-18T01:31:12.991Z,13.50
2018-03-18T01:33:39.871Z,14.90
2018-03-18T01:36:06.698Z,14.02
2018-03-18T01:38:34.146Z,14.07
2018-03-18T01:41:01.068Z,12.25
2018-03-18T01:43:27.919Z,12.15
2018-03-18T01:45:54.765Z,13.70
2018-03-18T01:48:21.664Z,14.23
2018-03-18T01:50:49.318Z,12.73
2018-03-18T01:53:22.206Z,12.30
2018-03-18T01:55:49.046Z,13.30
2018-03-18T01:58:15.865Z,12.13
2018-03-18T02:00:42.783Z,12.70
2018-03-18T02:03:09.606Z,11.20
2018-03-18T02:05:37.194Z,12.30
2018-03-18T02:08:04.036Z,11.95
2018-03-18T02:10:31.649Z,11.18
2018-03-18T02:12:58.522Z,9.57
2018-03-18T02:15:26.114Z,10.65
2018-03-18T02:17:52.989Z,11.68
2018-03-18T02:20:19.842Z,11.35
2018-03-18T02:22:46.723Z,11.02
2018-03-18T02:25:14.315Z,11.82
2018-03-18T02:27:41.131Z,10.30
2018-03-18T02:30:08.004Z,11.60
2018-03-18T02:32:34.863Z,11.57
2018-03-18T02:35:01.690Z,12.30
2018-03-18T02:37:28.750Z,12.23
2018-03-18T02:39:55.560Z,11.95
2018-03-18T02:42:22.443Z,12.60
2018-03-18T02:44:49.299Z,13.80
2018-03-18T02:47:16.192Z,12.45
2018-03-18T02:49:50.678Z,15.15
2018-03-18T02:52:17.497Z,13.52
2018-03-18T02:54:44.365Z,14.43
2018-03-18T02:57:11.963Z,13.95
2018-03-18T02:59:38.793Z,15.05
2018-03-18T03:02:06.420Z,14.95
2018-03-18T03:04:33.271Z,15.30
2018-03-18T03:07:00.878Z,14.25
2018-03-18T03:09:27.692Z,13.55
2018-03-18T03:11:54.646Z,13.73
2018-03-18T03:14:21.468Z,13.85
2018-03-18T03:16:48.342Z,13.32
2018-03-18T03:19:15.190Z,14.35
2018-03-18T03:21:42.783Z,14.60
2018-03-18T03:24:09.680Z,14.48
2018-03-18T03:26:36.506Z,14.00
2018-03-18T03:29:04.141Z,13.38
2018-03-18T03:31:31.079Z,13.00
2018-03-18T03:33:57.867Z,13.57
2018-03-18T03:36:25.458Z,14.32
2018-03-18T03:38:52.281Z,13.32
2018-03-18T03:41:19.175Z,12.85
2018-03-18T03:43:46.092Z,14.65
2018-03-18T03:46:12.899Z,15.55
2018-03-18T03:48:39.718Z,12.52
2018-03-18T03:51:06.654Z,15.15
2018-03-18T03:53:33.450Z,15.65
2018-03-18T03:56:00.345Z,15.40
2018-03-18T03:58:27.172Z,15.23
2018-03-18T04:00:54.079Z,14.35
2018-03-18T04:03:20.901Z,14.85
2018-03-18T04:05:48.483Z,16.73
2018-03-18T04:08:15.290Z,14.07
2018-03-18T04:10:42.194Z,15.48
2018-03-18T04:13:09.035Z,15.15
2018-03-18T04:15:35.894Z,14.95
2018-03-18T04:18:02.791Z,17.73
2018-03-18T04:20:29.653Z,14.60
2018-03-18T04:22:56.530Z,14.38
2018-03-18T04:25:23.568Z,27.30
2018-03-18T04:27:50.396Z,18.58
2018-03-18T04:30:18.034Z,17.85
2018-03-18T04:32:44.939Z,15.05
2018-03-18T04:35:11.802Z,16.60
2018-03-18T04:37:39.338Z,15.10
2018-03-18T04:40:06.927Z,15.90
2018-03-18T04:42:33.832Z,15.48
2018-03-18T04:45:00.703Z,15.82
2018-03-18T04:47:28.263Z,16.58
2018-03-18T04:49:55.078Z,15.75
2018-03-18T04:52:21.995Z,15.55
2018-03-18T04:54:48.797Z,16.37
2018-03-18T04:57:16.383Z,16.80
2018-03-18T04:59:43.236Z,15.30
2018-03-18T05:02:10.168Z,15.52
2018-03-18T05:04:44.087Z,15.52
2018-03-18T05:07:10.929Z,18.00
2018-03-18T05:09:37.742Z,16.25
2018-03-18T05:12:04.636Z,17.10
2018-03-18T05:14:31.490Z,18.20
2018-03-18T05:16:58.314Z,17.25
2018-03-18T05:19:25.359Z,19.37
2018-03-18T05:21:52.201Z,18.08
2018-03-18T05:24:19.036Z,18.58
2018-03-18T05:26:45.907Z,19.65
2018-03-18T05:29:12.727Z,17.30
2018-03-18T05:31:39.602Z,17.95
2018-03-18T05:34:06.459Z,17.25
2018-03-18T05:36:34.029Z,18.58
2018-03-18T05:39:00.890Z,18.60
2018-03-18T05:41:27.774Z,19.20
2018-03-18T05:43:55.406Z,18.45
2018-03-18T05:46:22.247Z,18.42
2018-03-18T05:48:49.091Z,19.17
2018-03-18T05:51:15.941Z,18.25
2018-03-18T05:53:43.712Z,16.65
2018-03-18T05:56:10.531Z,19.37
2018-03-18T05:58:37.374Z,18.67
2018-03-18T06:01:04.266Z,17.90
2018-03-18T06:03:31.114Z,18.77
2018-03-18T06:05:58.673Z,20.52
2018-03-18T06:08:25.478Z,19.27
2018-03-18T06:10:52.358Z,18.27
2018-03-18T06:13:19.174Z,19.85
2018-03-18T06:15:46.022Z,17.62
2018-03-18T06:18:12.838Z,15.95
2018-03-18T06:20:39.704Z,20.52
2018-03-18T06:23:06.534Z,17.90
2018-03-18T06:25:33.352Z,17.17
2018-03-18T06:28:00.187Z,19.05
2018-03-18T06:30:27.043Z,16.75
2018-03-18T06:32:53.931Z,19.37
2018-03-18T06:35:20.759Z,17.90
2018-03-18T06:37:47.586Z,17.85
2018-03-18T06:40:14.414Z,19.52
2018-03-18T06:42:41.310Z,17.83
2018-03-18T06:45:08.889Z,18.00
2018-03-18T06:47:36.707Z,17.12
2018-03-18T06:50:04.280Z,17.17
2018-03-18T06:52:31.148Z,18.52
2018-03-18T06:54:58.747Z,17.15
2018-03-18T06:57:25.635Z,19.00
2018-03-18T06:59:52.459Z,22.98
2018-03-18T07:02:19.358Z,18.25
2018-03-18T07:04:46.276Z,19.58
2018-03-18T07:07:13.232Z,21.00
2018-03-18T07:09:40.215Z,18.45
2018-03-18T07:12:07.156Z,18.67
2018-03-18T07:14:34.113Z,17.60
2018-03-18T07:17:01.247Z,15.60
2018-03-18T07:19:28.098Z,19.60
2018-03-18T07:21:55.037Z,18.50
2018-03-18T07:24:21.939Z,16.75
2018-03-18T07:26:48.849Z,15.98
2018-03-18T07:29:15.805Z,16.73
2018-03-18T07:31:42.818Z,16.20
2018-03-18T07:34:09.818Z,16.15
2018-03-18T07:36:36.734Z,16.50
2018-03-18T07:39:03.737Z,16.00
2018-03-18T07:41:30.646Z,18.20
2018-03-18T07:43:57.535Z,16.40
2018-03-18T07:46:24.475Z,18.00
2018-03-18T07:48:51.383Z,17.05
2018-03-18T07:51:19.030Z,16.50
2018-03-18T07:53:46.700Z,17.90
2018-03-18T07:56:13.600Z,17.30
2018-03-18T07:58:40.523Z,18.85
2018-03-18T08:01:07.418Z,14.63
2018-03-18T08:03:34.348Z,12.68
2018-03-18T08:06:01.315Z,15.55
2018-03-18T08:08:28.974Z,13.50
2018-03-18T08:10:56.035Z,14.05
2018-03-18T08:13:22.959Z,12.10
2018-03-18T08:15:49.913Z,14.02
2018-03-18T08:18:17.519Z,12.85
2018-03-18T08:20:44.536Z,13.95
2018-03-18T08:23:11.519Z,13.98
2018-03-18T08:25:38.520Z,15.13
2018-03-18T08:28:05.472Z,16.70
2018-03-18T08:30:33.140Z,15.98
2018-03-18T08:33:00.885Z,15.88
2018-03-18T08:35:28.063Z,16.35
2018-03-18T08:37:55.021Z,16.25
2018-03-18T08:40:21.884Z,16.33
2018-03-18T08:42:48.929Z,16.92
2018-03-18T08:45:15.885Z,16.05
2018-03-18T08:47:42.798Z,14.95
2018-03-18T08:50:09.771Z,13.80
2018-03-18T08:52:36.782Z,14.87
2018-03-18T08:55:04.517Z,15.40
2018-03-18T08:57:32.143Z,16.58
2018-03-18T08:59:59.076Z,15.60
2018-03-18T09:02:26.033Z,15.40
2018-03-18T09:04:52.882Z,15.65
2018-03-18T09:07:19.808Z,15.13
2018-03-18T09:09:46.816Z,17.08
2018-03-18T09:12:14.592Z,16.40
2018-03-18T09:14:41.576Z,15.90
2018-03-18T09:17:08.578Z,15.25
2018-03-18T09:19:35.544Z,17.37
2018-03-18T09:22:02.748Z,16.33
2018-03-18T09:24:29.680Z,16.10
2018-03-18T09:26:57.326Z,15.45
2018-03-18T09:29:24.292Z,16.52
2018-03-18T09:31:51.980Z,16.67
2018-03-18T09:34:18.968Z,15.63
2018-03-18T09:36:45.915Z,16.00
2018-03-18T09:39:12.888Z,16.05
2018-03-18T09:41:40.001Z,17.15
2018-03-18T09:44:06.982Z,15.38
2018-03-18T09:46:34.075Z,15.68
2018-03-18T09:49:00.942Z,15.77
2018-03-18T09:51:27.944Z,15.93
2018-03-18T09:53:54.885Z,17.40
2018-03-18T09:56:21.814Z,16.05
2018-03-18T09:58:49.590Z,15.02
2018-03-18T10:01:16.755Z,16.10
2018-03-18T10:03:43.738Z,17.30
2018-03-18T10:06:10.830Z,16.58
2018-03-18T10:08:37.793Z,17.17
2018-03-18T10:11:04.803Z,18.35
2018-03-18T10:13:31.740Z,16.50
2018-03-18T10:15:59.487Z,15.68
2018-03-18T10:18:26.420Z,14.95
2018-03-18T10:20:53.732Z,15.88
2018-03-18T10:23:20.988Z,17.42
2018-03-18T10:25:47.935Z,14.90
2018-03-18T10:28:14.830Z,16.87
2018-03-18T10:30:41.786Z,17.35
2018-03-18T10:33:08.969Z,18.58
2018-03-18T10:35:35.835Z,15.73
2018-03-18T10:38:02.793Z,16.00
2018-03-18T10:40:29.684Z,17.50
2018-03-18T10:42:56.716Z,15.88
2018-03-18T10:45:24.339Z,16.85
2018-03-18T10:47:51.270Z,18.90
2018-03-18T10:50:18.225Z,19.35
2018-03-18T10:52:45.200Z,19.70
2018-03-18T10:55:12.189Z,20.83
2018-03-18T10:57:39.083Z,17.48
2018-03-18T11:00:06.064Z,19.02
2018-03-18T11:02:33.772Z,17.65
2018-03-18T11:05:00.686Z,18.15
2018-03-18T11:07:27.672Z,18.05
2018-03-18T11:09:54.598Z,18.40
2018-03-18T11:12:21.569Z,16.83
2018-03-18T11:14:48.647Z,16.85
2018-03-18T11:17:15.555Z,18.70
2018-03-18T11:19:43.204Z,16.60
2018-03-18T11:22:10.257Z,18.77
2018-03-18T11:24:37.176Z,18.80
2018-03-18T11:27:04.840Z,19.48
2018-03-18T11:29:31.829Z,18.35
2018-03-18T11:31:59.614Z,18.73
2018-03-18T11:34:27.348Z,19.65
2018-03-18T11:36:54.222Z,18.70
2018-03-18T11:39:21.170Z,19.67
2018-03-18T11:41:48.150Z,19.80
2018-03-18T11:44:15.845Z,18.55
2018-03-18T11:46:42.724Z,18.90
2018-03-18T11:49:09.644Z,20.95
2018-03-18T11:51:37.467Z,19.60
2018-03-18T11:54:05.432Z,16.80
2018-03-18T11:56:32.393Z,17.40
2018-03-18T11:58:59.344Z,19.50
2018-03-18T12:01:26.332Z,19.20
2018-03-18T12:03:54.043Z,18.87
2018-03-18T12:06:21.693Z,19.60
2018-03-18T12:08:57.313Z,20.00
2018-03-18T12:11:24.343Z,19.70
2018-03-18T12:13:51.974Z,19.10
2018-03-18T12:16:18.929Z,18.67
2018-03-18T12:18:45.803Z,17.85
2018-03-18T12:21:12.763Z,19.85
2018-03-18T12:23:40.390Z,17.92
2018-03-18T12:26:07.247Z,16.80
2018-03-18T12:28:34.936Z,21.20
2018-03-18T12:31:02.928Z,19.50
2018-03-18T12:33:29.877Z,20.77
2018-03-18T12:35:56.799Z,18.87
2018-03-18T12:38:23.714Z,19.58
2018-03-18T12:40:51.376Z,22.50
2018-03-18T12:43:29.131Z,20.33
2018-03-18T12:45:56.075Z,18.60
2018-03-18T12:48:23.713Z,21.85
2018-03-18T12:50:51.492Z,20.25
2018-03-18T12:53:18.416Z,18.85
2018-03-18T12:55:45.258Z,20.75
2018-03-18T12:58:12.135Z,21.62
2018-03-18T13:00:38.975Z,18.67
2018-03-18T13:03:05.821Z,20.70
2018-03-18T13:05:32.717Z,21.70
2018-03-18T13:07:59.570Z,21.45
2018-03-18T13:10:26.430Z,21.58
2018-03-18T13:12:53.275Z,24.05
2018-03-18T13:15:20.867Z,21.17
2018-03-18T13:17:47.685Z,20.62
2018-03-18T13:20:15.307Z,18.33
2018-03-18T13:22:42.170Z,20.23
2018-03-18T13:25:09.754Z,20.23
2018-03-18T13:27:36.631Z,20.95
2018-03-18T13:30:03.519Z,18.83
2018-03-18T13:32:30.450Z,18.37
2018-03-18T13:34:57.710Z,19.40
2018-03-18T13:37:24.660Z,20.10
2018-03-18T13:39:51.514Z,20.73
2018-03-18T13:42:18.486Z,19.98
2018-03-18T13:44:45.326Z,19.15
2018-03-18T13:47:12.141Z,19.70
2018-03-18T13:49:39.807Z,19.77
2018-03-18T13:52:06.974Z,20.75
2018-03-18T13:54:34.577Z,20.85
2018-03-18T13:57:01.455Z,21.33
2018-03-18T13:59:29.086Z,19.55
2018-03-18T14:01:56.053Z,21.95
2018-03-18T14:04:22.904Z,19.40
2018-03-18T14:06:50.531Z,21.98
2018-03-18T14:09:17.366Z,21.40
2018-03-18T14:11:44.346Z,22.85
2018-03-18T14:14:11.180Z,22.35
2018-03-18T14:16:38.806Z,21.37
2018-03-18T14:19:05.641Z,21.33
2018-03-18T14:21:32.543Z,21.75
2018-03-18T14:23:59.369Z,22.60
2018-03-18T14:26:26.243Z,22.00
2018-03-18T14:28:53.082Z,19.12
2018-03-18T14:31:19.995Z,20.75
2018-03-18T14:33:46.830Z,21.02
2018-03-18T14:36:13.688Z,18.77
2018-03-18T14:38:40.521Z,18.87
2018-03-18T14:41:07.409Z,21.98
2018-03-18T14:43:34.973Z,21.92
2018-03-18T14:46:02.566Z,19.75
2018-03-18T14:48:29.423Z,21.77
2018-03-18T14:50:56.262Z,18.75
2018-03-18T14:53:23.115Z,22.70
2018-03-18T14:55:49.978Z,20.30
2018-03-18T14:58:16.787Z,18.87
2018-03-18T15:00:43.636Z,20.65
2018-03-18T15:03:10.496Z,20.00
2018-03-18T15:05:37.362Z,21.40
2018-03-18T15:08:04.247Z,19.58
2018-03-18T15:10:31.086Z,18.65
2018-03-18T15:12:57.955Z,19.60
2018-03-18T15:15:24.815Z,19.50
2018-03-18T15:17:51.643Z,19.48
2018-03-18T15:20:19.225Z,19.10
2018-03-18T15:22:46.855Z,19.55
2018-03-18T15:25:13.669Z,18.15
2018-03-18T15:27:40.515Z,18.65
2018-03-18T15:30:07.338Z,19.80
2018-03-18T15:32:34.271Z,18.83
2018-03-18T15:35:01.878Z,18.92
2018-03-18T15:37:29.667Z,19.12
2018-03-18T15:39:56.534Z,19.67
2018-03-18T15:42:23.451Z,19.95
2018-03-18T15:44:50.280Z,20.20
2018-03-18T15:47:17.132Z,19.05
2018-03-18T15:49:43.990Z,18.73
2018-03-18T15:52:11.631Z,18.35
2018-03-18T15:54:38.435Z,21.75
2018-03-18T15:57:05.283Z,18.92
2018-03-18T15:59:32.119Z,19.55
2018-03-18T16:01:59.733Z,19.00
2018-03-18T16:04:26.578Z,20.60
2018-03-18T16:06:53.414Z,17.85
2018-03-18T16:09:21.220Z,18.62
2018-03-18T16:11:48.842Z,18.70
2018-03-18T16:14:15.695Z,20.40
2018-03-18T16:16:42.567Z,18.55
2018-03-18T16:19:10.131Z,19.30
2018-03-18T16:21:37.743Z,19.30
2018-03-18T16:24:04.606Z,21.12
2018-03-18T16:26:31.484Z,20.75
2018-03-18T16:29:11.378Z,22.00
2018-03-18T16:31:38.247Z,21.08
2018-03-18T16:34:05.884Z,21.37
2018-03-18T16:36:32.727Z,22.02
2018-03-18T16:38:59.590Z,22.83
2018-03-18T16:41:26.502Z,20.00
2018-03-18T16:43:53.410Z,18.67
2018-03-18T16:46:20.295Z,21.10
2018-03-18T16:48:47.162Z,22.30
2018-03-18T16:51:14.803Z,21.98
2018-03-18T16:53:41.696Z,22.40
2018-03-18T16:56:08.543Z,23.10
2018-03-18T16:58:35.395Z,22.30
2018-03-18T17:01:02.332Z,21.15
2018-03-18T17:03:29.219Z,20.25
2018-03-18T17:05:56.099Z,19.83
2018-03-18T17:08:23.699Z,21.05
2018-03-18T17:10:51.304Z,22.17
2018-03-18T17:13:18.942Z,20.55
2018-03-18T17:15:45.784Z,23.45
2018-03-18T17:18:12.636Z,19.17
2018-03-18T17:20:39.529Z,22.08
2018-03-18T17:23:06.455Z,22.20
2018-03-18T17:25:34.032Z,22.15
2018-03-18T17:28:00.907Z,23.52
2018-03-18T17:30:27.747Z,23.08
2018-03-18T17:32:54.660Z,21.35
2018-03-18T17:35:21.527Z,25.20
2018-03-18T17:37:48.406Z,21.83
2018-03-18T17:40:15.326Z,22.73
2018-03-18T17:42:43.084Z,20.90
2018-03-18T17:45:23.312Z,24.98
2018-03-18T17:48:03.224Z,23.30
2018-03-18T17:50:39.236Z,21.48
2018-03-18T17:53:18.430Z,22.35
2018-03-18T17:55:46.030Z,22.45
2018-03-18T17:58:12.884Z,21.87
2018-03-18T18:00:39.954Z,21.48
2018-03-18T18:03:06.959Z,23.87
2018-03-18T18:05:33.936Z,20.33
2018-03-18T18:08:01.669Z,23.35
2018-03-18T18:10:28.647Z,22.52
2018-03-18T18:12:56.290Z,23.55
2018-03-18T18:15:23.284Z,23.60
2018-03-18T18:17:51.191Z,23.35
2018-03-18T18:20:18.168Z,22.77
2018-03-18T18:22:45.192Z,21.85
2018-03-18T18:25:12.542Z,20.50
2018-03-18T18:27:41.347Z,25.57
2018-03-18T18:30:08.244Z,22.73
2018-03-18T18:32:35.888Z,23.60
2018-03-18T18:35:02.768Z,19.75
2018-03-18T18:37:29.645Z,19.77
2018-03-18T18:39:56.487Z,21.40
2018-03-18T18:42:23.392Z,21.85
2018-03-18T18:44:50.298Z,20.05
2018-03-18T18:47:17.127Z,17.23
2018-03-18T18:49:43.983Z,20.67
2018-03-18T18:52:10.867Z,22.27
2018-03-18T18:54:38.407Z,20.20
2018-03-18T18:57:05.283Z,21.73
2018-03-18T18:59:33.483Z,21.00
2018-03-18T19:02:01.917Z,19.67
2018-03-18T19:04:28.959Z,19.73
2018-03-18T19:06:55.882Z,19.58
2018-03-18T19:09:22.816Z,21.20
2018-03-18T19:11:51.198Z,20.70
2018-03-18T19:14:18.842Z,19.90
2018-03-18T19:16:45.755Z,21.62
2018-03-18T19:19:12.685Z,21.98
2018-03-18T19:21:40.660Z,20.70
2018-03-18T19:24:07.611Z,21.98
2018-03-18T19:26:34.654Z,20.75
2018-03-18T19:29:01.627Z,19.30
2018-03-18T19:31:32.849Z,21.48
2018-03-18T19:33:59.836Z,19.10
2018-03-18T19:36:26.735Z,21.05
2018-03-18T19:38:53.580Z,20.98
2018-03-18T19:41:20.767Z,19.75
2018-03-18T19:43:47.683Z,19.83
2018-03-18T19:46:14.585Z,18.27
2018-03-18T19:48:42.667Z,17.48
2018-03-18T19:51:11.275Z,18.15
2018-03-18T19:53:38.176Z,19.62
2018-03-18T19:56:05.103Z,19.92
2018-03-18T19:58:31.955Z,20.83
2018-03-18T20:00:58.983Z,21.02
2018-03-18T20:03:26.784Z,20.48
2018-03-18T20:05:54.591Z,19.90
2018-03-18T20:08:21.476Z,19.92
2018-03-18T20:10:48.358Z,17.45
2018-03-18T20:13:15.556Z,20.55
2018-03-18T20:15:43.282Z,17.17
2018-03-18T20:18:10.180Z,20.95
2018-03-18T20:20:37.026Z,22.65
2018-03-18T20:23:04.952Z,20.45
2018-03-18T20:25:31.979Z,18.90
2018-03-18T20:27:59.148Z,19.73
2018-03-18T20:30:26.880Z,18.67
2018-03-18T20:33:02.223Z,19.87
2018-03-18T20:35:30.055Z,20.60
2018-03-18T20:37:56.927Z,20.15
2018-03-18T20:40:24.811Z,19.98
2018-03-18T20:42:52.791Z,20.48
2018-03-18T20:45:19.675Z,20.52
2018-03-18T20:47:46.731Z,21.27
2018-03-18T20:50:14.571Z,21.58
2018-03-18T20:52:42.500Z,20.95
2018-03-18T20:55:12.227Z,17.33
2018-03-18T20:57:39.068Z,18.15
2018-03-18T21:00:05.987Z,18.33
2018-03-18T21:02:43.270Z,19.20
2018-03-18T21:05:10.207Z,19.10
2018-03-18T21:07:37.271Z,19.60
2018-03-18T21:10:04.590Z,20.77
2018-03-18T21:12:47.680Z,19.98
2018-03-18T21:15:14.760Z,17.70
2018-03-18T21:17:42.001Z,21.70
2018-03-18T21:20:08.857Z,21.27
2018-03-18T21:22:58.479Z,21.70
2018-03-18T21:25:26.187Z,19.73
2018-03-18T21:27:53.238Z,20.30
2018-03-18T21:30:20.219Z,20.90
2018-03-18T21:32:50.517Z,19.73
2018-03-18T21:35:17.535Z,21.50
2018-03-18T21:37:44.571Z,21.10
2018-03-18T21:40:12.708Z,20.20
2018-03-18T21:43:05.852Z,21.73
2018-03-18T21:45:32.752Z,21.33
2018-03-18T21:47:59.671Z,21.85
2018-03-18T21:50:26.574Z,18.55
2018-03-18T21:52:55.568Z,21.40
2018-03-18T21:55:23.699Z,19.05
2018-03-18T21:57:50.542Z,19.85
2018-03-18T22:00:17.605Z,18.77
2018-03-18T22:02:45.377Z,19.85
2018-03-18T22:05:12.271Z,19.95
2018-03-18T22:07:41.643Z,22.17
2018-03-18T22:10:09.333Z,20.90
2018-03-18T22:12:52.572Z,19.00
2018-03-18T22:15:19.718Z,18.77
2018-03-18T22:17:46.763Z,21.33
2018-03-18T22:20:13.615Z,18.48
2018-03-18T22:23:02.439Z,18.08
2018-03-18T22:25:29.410Z,18.75
2018-03-18T22:27:57.109Z,17.90
2018-03-18T22:30:24.072Z,19.67
2018-03-18T22:32:51.879Z,18.40
2018-03-18T22:35:19.082Z,18.35
2018-03-18T22:37:45.930Z,16.70
2018-03-18T22:40:13.085Z,19.60
2018-03-18T22:42:43.559Z,20.65
2018-03-18T22:45:15.025Z,18.42
2018-03-18T22:47:42.767Z,19.58
2018-03-18T22:50:09.703Z,20.30
2018-03-18T22:52:46.992Z,21.27
2018-03-18T22:55:13.843Z,18.48
2018-03-18T22:57:41.119Z,19.05
2018-03-18T23:00:08.016Z,18.80
2018-03-18T23:02:47.600Z,18.62
2018-03-18T23:05:14.596Z,19.62
2018-03-18T23:07:42.273Z,19.15
2018-03-18T23:10:10.092Z,19.33
2018-03-18T23:12:44.087Z,18.30
2018-03-18T23:15:11.004Z,19.37
2018-03-18T23:17:37.827Z,18.80
2018-03-18T23:20:04.700Z,18.20
2018-03-18T23:22:32.667Z,18.48
2018-03-18T23:24:59.627Z,20.27
2018-03-18T23:27:26.507Z,19.15
2018-03-18T23:29:53.399Z,21.00
2018-03-18T23:32:22.299Z,21.50
2018-03-18T23:34:49.144Z,19.67
2018-03-18T23:37:16.719Z,19.62
2018-03-18T23:39:43.559Z,18.17
2018-03-18T23:42:10.509Z,21.08
2018-03-18T23:44:37.438Z,17.73
2018-03-18T23:47:04.375Z,20.00
2018-03-18T23:49:31.307Z,20.88
2018-03-18T23:52:04.284Z,19.23
2018-03-18T23:54:31.882Z,20.60
2018-03-18T23:57:02.326Z,21.17
2018-03-18T23:59:29.287Z,19.52
